sensor_id;sensor_type;location;lat;lon;timestamp;P1;durP1;ratioP1;P2;durP2;ratioP2
84054;SDS011;74141;51.504;7.122;2024-02-26T00:01:14;4.07;;;2.42;;
84054;SDS011;74141;51.504;7.122;2024-02-26T00:03:39;6.25;;;2.35;;
84054;SDS011;74141;51.504;7.122;2024-02-26T00:06:07;3.33;;;2.38;;
84054;SDS011;74141;51.504;7.122;2024-02-26T00:08:32;4.77;;;2.97;;
84054;SDS011;74141;51.504;7.122;2024-02-26T00:10:57;2.85;;;2.28;;
84054;SDS011;74141;51.504;7.122;2024-02-26T00:13:23;3.70;;;2.40;;
84054;SDS011;74141;51.504;7.122;2024-02-26T00:15:48;4.00;;;2.27;;
84054;SDS011;74141;51.504;7.122;2024-02-26T00:18:13;4.32;;;2.42;;
84054;SDS011;74141;51.504;7.122;2024-02-26T00:20:38;5.60;;;2.40;;
84054;SDS011;74141;51.504;7.122;2024-02-26T00:23:05;3.38;;;2.40;;
84054;SDS011;74141;51.504;7.122;2024-02-26T00:25:30;6.43;;;2.80;;
84054;SDS011;74141;51.504;7.122;2024-02-26T00:27:55;5.60;;;2.70;;
84054;SDS011;74141;51.504;7.122;2024-02-26T00:30:21;3.80;;;2.70;;
84054;SDS011;74141;51.504;7.122;2024-02-26T00:32:47;3.42;;;2.70;;
84054;SDS011;74141;51.504;7.122;2024-02-26T00:35:12;5.10;;;2.90;;
84054;SDS011;74141;51.504;7.122;2024-02-26T00:37:39;3.90;;;2.55;;
84054;SDS011;74141;51.504;7.122;2024-02-26T00:40:04;3.75;;;2.67;;
84054;SDS011;74141;51.504;7.122;2024-02-26T00:42:31;6.07;;;3.00;;
84054;SDS011;74141;51.504;7.122;2024-02-26T00:44:56;3.95;;;2.72;;
84054;SDS011;74141;51.504;7.122;2024-02-26T00:47:22;3.87;;;2.90;;
84054;SDS011;74141;51.504;7.122;2024-02-26T00:49:47;3.55;;;2.60;;
84054;SDS011;74141;51.504;7.122;2024-02-26T00:52:12;7.23;;;3.20;;
84054;SDS011;74141;51.504;7.122;2024-02-26T00:54:37;4.90;;;2.90;;
84054;SDS011;74141;51.504;7.122;2024-02-26T00:57:03;5.83;;;3.03;;
84054;SDS011;74141;51.504;7.122;2024-02-26T00:59:28;3.97;;;2.60;;
84054;SDS011;74141;51.504;7.122;2024-02-26T01:01:53;3.43;;;2.33;;
84054;SDS011;74141;51.504;7.122;2024-02-26T01:04:18;3.50;;;2.70;;
84054;SDS011;74141;51.504;7.122;2024-02-26T01:06:44;4.07;;;2.80;;
84054;SDS011;74141;51.504;7.122;2024-02-26T01:09:09;5.33;;;2.70;;
84054;SDS011;74141;51.504;7.122;2024-02-26T01:11:34;4.27;;;2.53;;
84054;SDS011;74141;51.504;7.122;2024-02-26T01:14:00;3.75;;;2.70;;
84054;SDS011;74141;51.504;7.122;2024-02-26T01:16:25;4.40;;;2.80;;
84054;SDS011;74141;51.504;7.122;2024-02-26T01:18:50;5.00;;;2.70;;
84054;SDS011;74141;51.504;7.122;2024-02-26T01:21:15;4.03;;;2.50;;
84054;SDS011;74141;51.504;7.122;2024-02-26T01:23:41;3.07;;;2.40;;
84054;SDS011;74141;51.504;7.122;2024-02-26T01:26:07;3.47;;;2.30;;
84054;SDS011;74141;51.504;7.122;2024-02-26T01:28:32;5.13;;;2.60;;
84054;SDS011;74141;51.504;7.122;2024-02-26T01:30:58;4.87;;;2.70;;
84054;SDS011;74141;51.504;7.122;2024-02-26T01:33:25;3.72;;;2.60;;
84054;SDS011;74141;51.504;7.122;2024-02-26T01:35:51;4.05;;;2.70;;
84054;SDS011;74141;51.504;7.122;2024-02-26T01:38:16;4.18;;;2.72;;
84054;SDS011;74141;51.504;7.122;2024-02-26T01:40:41;8.05;;;3.47;;
84054;SDS011;74141;51.504;7.122;2024-02-26T01:43:07;3.67;;;2.50;;
84054;SDS011;74141;51.504;7.122;2024-02-26T01:45:32;4.93;;;2.90;;
84054;SDS011;74141;51.504;7.122;2024-02-26T01:47:57;4.80;;;2.77;;
84054;SDS011;74141;51.504;7.122;2024-02-26T01:50:23;4.25;;;2.67;;
84054;SDS011;74141;51.504;7.122;2024-02-26T01:52:50;4.45;;;2.30;;
84054;SDS011;74141;51.504;7.122;2024-02-26T01:55:17;3.53;;;2.78;;
84054;SDS011;74141;51.504;7.122;2024-02-26T01:57:43;3.05;;;2.30;;
84054;SDS011;74141;51.504;7.122;2024-02-26T02:00:13;5.45;;;2.85;;
84054;SDS011;74141;51.504;7.122;2024-02-26T02:02:39;5.50;;;2.50;;
84054;SDS011;74141;51.504;7.122;2024-02-26T02:05:13;3.78;;;2.70;;
84054;SDS011;74141;51.504;7.122;2024-02-26T02:07:41;5.38;;;3.00;;
84054;SDS011;74141;51.504;7.122;2024-02-26T02:10:12;6.93;;;3.45;;
84054;SDS011;74141;51.504;7.122;2024-02-26T02:12:37;3.75;;;2.67;;
84054;SDS011;74141;51.504;7.122;2024-02-26T02:15:13;2.45;;;2.10;;
84054;SDS011;74141;51.504;7.122;2024-02-26T02:17:39;5.15;;;2.50;;
84054;SDS011;74141;51.504;7.122;2024-02-26T02:20:16;3.50;;;2.53;;
84054;SDS011;74141;51.504;7.122;2024-02-26T02:22:44;3.38;;;2.53;;
84054;SDS011;74141;51.504;7.122;2024-02-26T02:25:13;3.13;;;2.53;;
84054;SDS011;74141;51.504;7.122;2024-02-26T02:27:39;4.15;;;2.40;;
84054;SDS011;74141;51.504;7.122;2024-02-26T02:30:14;3.25;;;2.38;;
84054;SDS011;74141;51.504;7.122;2024-02-26T02:32:41;3.33;;;2.72;;
84054;SDS011;74141;51.504;7.122;2024-02-26T02:35:12;4.72;;;2.80;;
84054;SDS011;74141;51.504;7.122;2024-02-26T02:37:38;4.10;;;2.60;;
84054;SDS011;74141;51.504;7.122;2024-02-26T02:40:12;3.30;;;2.20;;
84054;SDS011;74141;51.504;7.122;2024-02-26T02:42:37;3.65;;;2.20;;
84054;SDS011;74141;51.504;7.122;2024-02-26T02:45:12;4.10;;;2.30;;
84054;SDS011;74141;51.504;7.122;2024-02-26T02:47:37;3.63;;;2.47;;
84054;SDS011;74141;51.504;7.122;2024-02-26T02:50:11;4.38;;;2.47;;
84054;SDS011;74141;51.504;7.122;2024-02-26T02:52:37;3.58;;;2.20;;
84054;SDS011;74141;51.504;7.122;2024-02-26T02:55:11;3.13;;;2.20;;
84054;SDS011;74141;51.504;7.122;2024-02-26T02:57:37;2.97;;;1.95;;
84054;SDS011;74141;51.504;7.122;2024-02-26T03:00:07;4.03;;;2.40;;
84054;SDS011;74141;51.504;7.122;2024-02-26T03:02:33;3.63;;;2.17;;
84054;SDS011;74141;51.504;7.122;2024-02-26T03:05:00;2.72;;;2.28;;
84054;SDS011;74141;51.504;7.122;2024-02-26T03:07:26;3.33;;;2.05;;
84054;SDS011;74141;51.504;7.122;2024-02-26T03:09:51;4.27;;;1.90;;
84054;SDS011;74141;51.504;7.122;2024-02-26T03:12:17;3.27;;;2.47;;
84054;SDS011;74141;51.504;7.122;2024-02-26T03:14:43;4.55;;;2.50;;
84054;SDS011;74141;51.504;7.122;2024-02-26T03:17:08;2.65;;;2.22;;
84054;SDS011;74141;51.504;7.122;2024-02-26T03:19:33;3.47;;;2.35;;
84054;SDS011;74141;51.504;7.122;2024-02-26T03:21:59;3.25;;;2.22;;
84054;SDS011;74141;51.504;7.122;2024-02-26T03:24:24;4.40;;;2.37;;
84054;SDS011;74141;51.504;7.122;2024-02-26T03:26:49;3.20;;;2.50;;
84054;SDS011;74141;51.504;7.122;2024-02-26T03:29:15;2.65;;;2.30;;
84054;SDS011;74141;51.504;7.122;2024-02-26T03:31:41;4.03;;;2.50;;
84054;SDS011;74141;51.504;7.122;2024-02-26T03:34:06;2.87;;;2.07;;
84054;SDS011;74141;51.504;7.122;2024-02-26T03:36:31;3.63;;;2.40;;
84054;SDS011;74141;51.504;7.122;2024-02-26T03:38:56;3.60;;;2.33;;
84054;SDS011;74141;51.504;7.122;2024-02-26T03:41:22;6.03;;;2.70;;
84054;SDS011;74141;51.504;7.122;2024-02-26T03:43:47;2.90;;;2.20;;
84054;SDS011;74141;51.504;7.122;2024-02-26T03:46:12;3.95;;;2.58;;
84054;SDS011;74141;51.504;7.122;2024-02-26T03:48:39;3.47;;;2.42;;
84054;SDS011;74141;51.504;7.122;2024-02-26T03:51:08;3.97;;;2.95;;
84054;SDS011;74141;51.504;7.122;2024-02-26T03:53:35;5.55;;;3.03;;
84054;SDS011;74141;51.504;7.122;2024-02-26T03:56:04;3.60;;;2.50;;
84054;SDS011;74141;51.504;7.122;2024-02-26T03:58:30;4.57;;;3.00;;
84054;SDS011;74141;51.504;7.122;2024-02-26T04:00:55;6.20;;;2.95;;
84054;SDS011;74141;51.504;7.122;2024-02-26T04:03:21;4.13;;;2.97;;
84054;SDS011;74141;51.504;7.122;2024-02-26T04:05:46;3.50;;;2.70;;
84054;SDS011;74141;51.504;7.122;2024-02-26T04:08:12;3.90;;;3.15;;
84054;SDS011;74141;51.504;7.122;2024-02-26T04:10:37;3.97;;;2.42;;
84054;SDS011;74141;51.504;7.122;2024-02-26T04:13:04;3.78;;;3.08;;
84054;SDS011;74141;51.504;7.122;2024-02-26T04:15:30;3.45;;;2.63;;
84054;SDS011;74141;51.504;7.122;2024-02-26T04:17:55;5.15;;;3.22;;
84054;SDS011;74141;51.504;7.122;2024-02-26T04:20:21;4.38;;;2.92;;
84054;SDS011;74141;51.504;7.122;2024-02-26T04:22:47;4.45;;;3.15;;
84054;SDS011;74141;51.504;7.122;2024-02-26T04:25:12;4.95;;;3.10;;
84054;SDS011;74141;51.504;7.122;2024-02-26T04:27:37;4.65;;;3.22;;
84054;SDS011;74141;51.504;7.122;2024-02-26T04:30:03;3.75;;;2.80;;
84054;SDS011;74141;51.504;7.122;2024-02-26T04:32:30;5.63;;;3.40;;
84054;SDS011;74141;51.504;7.122;2024-02-26T04:34:55;5.07;;;3.17;;
84054;SDS011;74141;51.504;7.122;2024-02-26T04:37:20;4.40;;;2.90;;
84054;SDS011;74141;51.504;7.122;2024-02-26T04:39:46;5.00;;;3.40;;
84054;SDS011;74141;51.504;7.122;2024-02-26T04:42:11;6.57;;;3.47;;
84054;SDS011;74141;51.504;7.122;2024-02-26T04:44:36;3.70;;;3.03;;
84054;SDS011;74141;51.504;7.122;2024-02-26T04:47:01;4.30;;;3.07;;
84054;SDS011;74141;51.504;7.122;2024-02-26T04:49:27;4.50;;;3.35;;
84054;SDS011;74141;51.504;7.122;2024-02-26T04:51:52;5.25;;;3.60;;
84054;SDS011;74141;51.504;7.122;2024-02-26T04:54:18;5.60;;;3.80;;
84054;SDS011;74141;51.504;7.122;2024-02-26T04:56:43;5.13;;;3.25;;
84054;SDS011;74141;51.504;7.122;2024-02-26T04:59:09;4.10;;;3.35;;
84054;SDS011;74141;51.504;7.122;2024-02-26T05:01:34;4.53;;;3.30;;
84054;SDS011;74141;51.504;7.122;2024-02-26T05:04:01;5.93;;;3.72;;
84054;SDS011;74141;51.504;7.122;2024-02-26T05:06:28;5.40;;;3.90;;
84054;SDS011;74141;51.504;7.122;2024-02-26T05:08:53;5.53;;;3.97;;
84054;SDS011;74141;51.504;7.122;2024-02-26T05:11:18;4.37;;;3.10;;
84054;SDS011;74141;51.504;7.122;2024-02-26T05:13:43;7.30;;;3.57;;
84054;SDS011;74141;51.504;7.122;2024-02-26T05:16:10;5.90;;;4.10;;
84054;SDS011;74141;51.504;7.122;2024-02-26T05:18:35;5.35;;;3.70;;
84054;SDS011;74141;51.504;7.122;2024-02-26T05:21:01;5.63;;;3.50;;
84054;SDS011;74141;51.504;7.122;2024-02-26T05:23:26;4.73;;;3.50;;
84054;SDS011;74141;51.504;7.122;2024-02-26T05:25:51;7.13;;;4.05;;
84054;SDS011;74141;51.504;7.122;2024-02-26T05:28:17;6.68;;;4.38;;
84054;SDS011;74141;51.504;7.122;2024-02-26T05:30:45;9.60;;;4.60;;
84054;SDS011;74141;51.504;7.122;2024-02-26T05:33:10;9.70;;;4.63;;
84054;SDS011;74141;51.504;7.122;2024-02-26T05:35:36;6.93;;;4.30;;
84054;SDS011;74141;51.504;7.122;2024-02-26T05:38:02;5.35;;;4.07;;
84054;SDS011;74141;51.504;7.122;2024-02-26T05:40:27;5.70;;;4.32;;
84054;SDS011;74141;51.504;7.122;2024-02-26T05:42:52;6.67;;;4.43;;
84054;SDS011;74141;51.504;7.122;2024-02-26T05:45:17;7.53;;;4.20;;
84054;SDS011;74141;51.504;7.122;2024-02-26T05:47:43;13.38;;;5.10;;
84054;SDS011;74141;51.504;7.122;2024-02-26T05:50:09;6.77;;;4.27;;
84054;SDS011;74141;51.504;7.122;2024-02-26T05:52:36;4.97;;;3.72;;
84054;SDS011;74141;51.504;7.122;2024-02-26T05:55:01;6.65;;;3.85;;
84054;SDS011;74141;51.504;7.122;2024-02-26T05:57:27;7.93;;;4.40;;
84054;SDS011;74141;51.504;7.122;2024-02-26T05:59:52;6.63;;;4.33;;
84054;SDS011;74141;51.504;7.122;2024-02-26T06:02:18;7.63;;;4.28;;
84054;SDS011;74141;51.504;7.122;2024-02-26T06:04:43;6.60;;;3.83;;
84054;SDS011;74141;51.504;7.122;2024-02-26T06:07:08;6.83;;;5.00;;
84054;SDS011;74141;51.504;7.122;2024-02-26T06:09:34;7.32;;;5.05;;
84054;SDS011;74141;51.504;7.122;2024-02-26T06:11:59;6.82;;;4.75;;
84054;SDS011;74141;51.504;7.122;2024-02-26T06:14:24;6.87;;;3.67;;
84054;SDS011;74141;51.504;7.122;2024-02-26T06:16:49;6.57;;;4.30;;
84054;SDS011;74141;51.504;7.122;2024-02-26T06:19:15;6.55;;;4.55;;
84054;SDS011;74141;51.504;7.122;2024-02-26T06:21:40;6.30;;;3.73;;
84054;SDS011;74141;51.504;7.122;2024-02-26T06:24:05;9.50;;;4.37;;
84054;SDS011;74141;51.504;7.122;2024-02-26T06:26:30;7.37;;;4.80;;
84054;SDS011;74141;51.504;7.122;2024-02-26T06:28:58;4.85;;;3.83;;
84054;SDS011;74141;51.504;7.122;2024-02-26T06:31:23;6.15;;;4.90;;
84054;SDS011;74141;51.504;7.122;2024-02-26T06:33:49;6.63;;;4.20;;
84054;SDS011;74141;51.504;7.122;2024-02-26T06:36:15;5.10;;;4.20;;
84054;SDS011;74141;51.504;7.122;2024-02-26T06:38:41;4.78;;;3.72;;
84054;SDS011;74141;51.504;7.122;2024-02-26T06:41:06;4.63;;;3.87;;
84054;SDS011;74141;51.504;7.122;2024-02-26T06:43:31;4.90;;;3.97;;
84054;SDS011;74141;51.504;7.122;2024-02-26T06:45:56;6.38;;;4.00;;
84054;SDS011;74141;51.504;7.122;2024-02-26T06:48:23;6.30;;;4.07;;
84054;SDS011;74141;51.504;7.122;2024-02-26T06:50:49;5.70;;;4.43;;
84054;SDS011;74141;51.504;7.122;2024-02-26T06:53:14;5.77;;;3.80;;
84054;SDS011;74141;51.504;7.122;2024-02-26T06:55:39;5.37;;;4.20;;
84054;SDS011;74141;51.504;7.122;2024-02-26T06:58:05;5.50;;;4.22;;
84054;SDS011;74141;51.504;7.122;2024-02-26T07:00:31;6.32;;;4.45;;
84054;SDS011;74141;51.504;7.122;2024-02-26T07:02:56;5.47;;;4.40;;
84054;SDS011;74141;51.504;7.122;2024-02-26T07:05:21;6.28;;;4.63;;
84054;SDS011;74141;51.504;7.122;2024-02-26T07:07:46;5.03;;;3.70;;
84054;SDS011;74141;51.504;7.122;2024-02-26T07:10:12;7.10;;;3.83;;
84054;SDS011;74141;51.504;7.122;2024-02-26T07:12:38;5.38;;;3.85;;
84054;SDS011;74141;51.504;7.122;2024-02-26T07:15:03;6.35;;;4.10;;
84054;SDS011;74141;51.504;7.122;2024-02-26T07:17:30;5.57;;;4.45;;
84054;SDS011;74141;51.504;7.122;2024-02-26T07:19:55;6.32;;;4.70;;
84054;SDS011;74141;51.504;7.122;2024-02-26T07:22:20;6.93;;;4.20;;
84054;SDS011;74141;51.504;7.122;2024-02-26T07:24:45;4.87;;;3.80;;
84054;SDS011;74141;51.504;7.122;2024-02-26T07:27:11;6.03;;;4.43;;
84054;SDS011;74141;51.504;7.122;2024-02-26T07:29:36;5.75;;;4.32;;
84054;SDS011;74141;51.504;7.122;2024-02-26T07:32:02;5.47;;;3.53;;
84054;SDS011;74141;51.504;7.122;2024-02-26T07:34:27;9.27;;;4.25;;
84054;SDS011;74141;51.504;7.122;2024-02-26T07:36:54;6.57;;;4.85;;
84054;SDS011;74141;51.504;7.122;2024-02-26T07:39:20;7.68;;;5.18;;
84054;SDS011;74141;51.504;7.122;2024-02-26T07:41:45;5.63;;;4.57;;
84054;SDS011;74141;51.504;7.122;2024-02-26T07:44:14;5.57;;;4.20;;
84054;SDS011;74141;51.504;7.122;2024-02-26T07:46:40;6.32;;;4.53;;
84054;SDS011;74141;51.504;7.122;2024-02-26T07:49:05;6.97;;;4.80;;
84054;SDS011;74141;51.504;7.122;2024-02-26T07:51:30;8.00;;;4.90;;
84054;SDS011;74141;51.504;7.122;2024-02-26T07:53:55;7.07;;;4.40;;
84054;SDS011;74141;51.504;7.122;2024-02-26T07:56:21;5.83;;;4.60;;
84054;SDS011;74141;51.504;7.122;2024-02-26T07:58:46;5.83;;;4.10;;
84054;SDS011;74141;51.504;7.122;2024-02-26T08:01:14;7.13;;;5.23;;
84054;SDS011;74141;51.504;7.122;2024-02-26T08:03:40;6.90;;;4.82;;
84054;SDS011;74141;51.504;7.122;2024-02-26T08:06:05;5.95;;;4.47;;
84054;SDS011;74141;51.504;7.122;2024-02-26T08:08:30;10.23;;;5.25;;
84054;SDS011;74141;51.504;7.122;2024-02-26T08:10:56;10.32;;;5.47;;
84054;SDS011;74141;51.504;7.122;2024-02-26T08:13:21;6.68;;;4.82;;
84054;SDS011;74141;51.504;7.122;2024-02-26T08:15:46;6.68;;;4.72;;
84054;SDS011;74141;51.504;7.122;2024-02-26T08:18:12;7.70;;;4.80;;
84054;SDS011;74141;51.504;7.122;2024-02-26T08:20:37;10.30;;;5.18;;
84054;SDS011;74141;51.504;7.122;2024-02-26T08:23:02;7.23;;;4.93;;
84054;SDS011;74141;51.504;7.122;2024-02-26T08:25:28;8.75;;;4.75;;
84054;SDS011;74141;51.504;7.122;2024-02-26T08:27:53;6.50;;;4.90;;
84054;SDS011;74141;51.504;7.122;2024-02-26T08:30:18;5.65;;;4.63;;
84054;SDS011;74141;51.504;7.122;2024-02-26T08:32:44;7.85;;;5.53;;
84054;SDS011;74141;51.504;7.122;2024-02-26T08:35:11;10.15;;;4.95;;
84054;SDS011;74141;51.504;7.122;2024-02-26T08:37:36;6.82;;;4.35;;
84054;SDS011;74141;51.504;7.122;2024-02-26T08:40:01;6.70;;;4.47;;
84054;SDS011;74141;51.504;7.122;2024-02-26T08:42:28;8.50;;;4.95;;
84054;SDS011;74141;51.504;7.122;2024-02-26T08:44:54;7.55;;;5.55;;
84054;SDS011;74141;51.504;7.122;2024-02-26T08:47:19;8.52;;;5.82;;
84054;SDS011;74141;51.504;7.122;2024-02-26T08:49:45;8.20;;;5.07;;
84054;SDS011;74141;51.504;7.122;2024-02-26T08:52:10;7.75;;;5.15;;
84054;SDS011;74141;51.504;7.122;2024-02-26T08:54:36;9.10;;;4.35;;
84054;SDS011;74141;51.504;7.122;2024-02-26T08:57:01;5.45;;;3.88;;
84054;SDS011;74141;51.504;7.122;2024-02-26T08:59:27;7.22;;;4.68;;
84054;SDS011;74141;51.504;7.122;2024-02-26T09:01:53;5.93;;;4.20;;
84054;SDS011;74141;51.504;7.122;2024-02-26T09:04:18;8.25;;;4.85;;
84054;SDS011;74141;51.504;7.122;2024-02-26T09:06:43;7.43;;;4.90;;
84054;SDS011;74141;51.504;7.122;2024-02-26T09:09:09;6.53;;;4.90;;
84054;SDS011;74141;51.504;7.122;2024-02-26T09:11:34;6.80;;;4.60;;
84054;SDS011;74141;51.504;7.122;2024-02-26T09:13:59;8.80;;;5.23;;
84054;SDS011;74141;51.504;7.122;2024-02-26T09:16:24;8.07;;;5.45;;
84054;SDS011;74141;51.504;7.122;2024-02-26T09:18:50;6.77;;;5.43;;
84054;SDS011;74141;51.504;7.122;2024-02-26T09:21:15;7.57;;;5.53;;
84054;SDS011;74141;51.504;7.122;2024-02-26T09:23:43;14.13;;;5.90;;
84054;SDS011;74141;51.504;7.122;2024-02-26T09:26:08;9.30;;;5.70;;
84054;SDS011;74141;51.504;7.122;2024-02-26T09:28:34;6.97;;;4.85;;
84054;SDS011;74141;51.504;7.122;2024-02-26T09:31:02;14.07;;;7.75;;
84054;SDS011;74141;51.504;7.122;2024-02-26T09:33:29;8.32;;;5.32;;
84054;SDS011;74141;51.504;7.122;2024-02-26T09:35:54;11.32;;;5.57;;
84054;SDS011;74141;51.504;7.122;2024-02-26T09:38:19;11.43;;;5.65;;
84054;SDS011;74141;51.504;7.122;2024-02-26T09:40:45;10.63;;;7.13;;
84054;SDS011;74141;51.504;7.122;2024-02-26T09:43:10;7.65;;;5.65;;
84054;SDS011;74141;51.504;7.122;2024-02-26T09:45:40;7.72;;;5.43;;
84054;SDS011;74141;51.504;7.122;2024-02-26T09:48:06;7.28;;;5.35;;
84054;SDS011;74141;51.504;7.122;2024-02-26T09:50:35;8.90;;;5.00;;
84054;SDS011;74141;51.504;7.122;2024-02-26T09:53:01;7.72;;;5.32;;
84054;SDS011;74141;51.504;7.122;2024-02-26T09:55:27;9.05;;;6.50;;
84054;SDS011;74141;51.504;7.122;2024-02-26T09:57:53;7.97;;;5.13;;
84054;SDS011;74141;51.504;7.122;2024-02-26T10:00:20;7.28;;;5.03;;
84054;SDS011;74141;51.504;7.122;2024-02-26T10:02:46;8.88;;;6.13;;
84054;SDS011;74141;51.504;7.122;2024-02-26T10:05:14;9.13;;;6.60;;
84054;SDS011;74141;51.504;7.122;2024-02-26T10:07:43;8.60;;;6.38;;
84054;SDS011;74141;51.504;7.122;2024-02-26T10:10:09;10.38;;;6.88;;
84054;SDS011;74141;51.504;7.122;2024-02-26T10:12:35;11.55;;;5.35;;
84054;SDS011;74141;51.504;7.122;2024-02-26T10:15:00;8.27;;;6.50;;
84054;SDS011;74141;51.504;7.122;2024-02-26T10:17:26;7.93;;;5.70;;
84054;SDS011;74141;51.504;7.122;2024-02-26T10:19:51;8.32;;;6.80;;
84054;SDS011;74141;51.504;7.122;2024-02-26T10:22:21;8.20;;;4.43;;
84054;SDS011;74141;51.504;7.122;2024-02-26T10:24:47;11.23;;;7.55;;
84054;SDS011;74141;51.504;7.122;2024-02-26T10:27:13;10.35;;;6.13;;
84054;SDS011;74141;51.504;7.122;2024-02-26T10:29:38;9.73;;;6.03;;
84054;SDS011;74141;51.504;7.122;2024-02-26T10:32:03;6.53;;;5.30;;
84054;SDS011;74141;51.504;7.122;2024-02-26T10:34:29;5.82;;;5.05;;
84054;SDS011;74141;51.504;7.122;2024-02-26T10:36:55;6.13;;;4.78;;
84054;SDS011;74141;51.504;7.122;2024-02-26T10:39:21;7.53;;;4.53;;
84054;SDS011;74141;51.504;7.122;2024-02-26T10:41:46;8.48;;;6.13;;
84054;SDS011;74141;51.504;7.122;2024-02-26T10:44:11;6.70;;;4.93;;
84054;SDS011;74141;51.504;7.122;2024-02-26T10:46:37;6.63;;;4.47;;
84054;SDS011;74141;51.504;7.122;2024-02-26T10:49:04;7.80;;;5.47;;
84054;SDS011;74141;51.504;7.122;2024-02-26T10:51:31;8.73;;;4.93;;
84054;SDS011;74141;51.504;7.122;2024-02-26T10:54:02;11.00;;;5.97;;
84054;SDS011;74141;51.504;7.122;2024-02-26T10:58:58;12.25;;;6.00;;
84054;SDS011;74141;51.504;7.122;2024-02-26T11:01:24;8.18;;;5.10;;
84054;SDS011;74141;51.504;7.122;2024-02-26T11:03:51;27.50;;;15.02;;
84054;SDS011;74141;51.504;7.122;2024-02-26T11:06:21;22.98;;;14.18;;
84054;SDS011;74141;51.504;7.122;2024-02-26T11:08:47;20.95;;;13.15;;
84054;SDS011;74141;51.504;7.122;2024-02-26T11:11:16;16.92;;;11.30;;
84054;SDS011;74141;51.504;7.122;2024-02-26T11:13:44;10.10;;;6.78;;
84054;SDS011;74141;51.504;7.122;2024-02-26T11:16:20;6.95;;;5.38;;
84054;SDS011;74141;51.504;7.122;2024-02-26T11:18:46;8.02;;;5.55;;
84054;SDS011;74141;51.504;7.122;2024-02-26T11:21:13;8.63;;;6.78;;
84054;SDS011;74141;51.504;7.122;2024-02-26T11:23:40;10.48;;;8.45;;
84054;SDS011;74141;51.504;7.122;2024-02-26T11:26:05;8.15;;;6.45;;
84054;SDS011;74141;51.504;7.122;2024-02-26T11:28:33;5.80;;;4.38;;
84054;SDS011;74141;51.504;7.122;2024-02-26T11:31:00;8.77;;;5.10;;
84054;SDS011;74141;51.504;7.122;2024-02-26T11:33:26;6.50;;;4.65;;
84054;SDS011;74141;51.504;7.122;2024-02-26T11:35:53;8.77;;;5.50;;
84054;SDS011;74141;51.504;7.122;2024-02-26T11:38:23;10.45;;;5.72;;
84054;SDS011;74141;51.504;7.122;2024-02-26T11:40:50;11.88;;;7.00;;
84054;SDS011;74141;51.504;7.122;2024-02-26T11:43:16;17.40;;;8.02;;
84054;SDS011;74141;51.504;7.122;2024-02-26T11:48:11;10.10;;;6.28;;
84054;SDS011;74141;51.504;7.122;2024-02-26T11:50:40;9.00;;;7.82;;
84054;SDS011;74141;51.504;7.122;2024-02-26T11:55:48;10.23;;;7.50;;
84054;SDS011;74141;51.504;7.122;2024-02-26T11:58:33;11.68;;;8.10;;
84054;SDS011;74141;51.504;7.122;2024-02-26T12:00:59;9.63;;;7.78;;
84054;SDS011;74141;51.504;7.122;2024-02-26T12:03:24;8.50;;;5.83;;
84054;SDS011;74141;51.504;7.122;2024-02-26T12:05:49;8.75;;;6.22;;
84054;SDS011;74141;51.504;7.122;2024-02-26T12:08:16;11.43;;;8.18;;
84054;SDS011;74141;51.504;7.122;2024-02-26T12:10:44;10.98;;;7.30;;
84054;SDS011;74141;51.504;7.122;2024-02-26T12:13:11;10.73;;;7.32;;
84054;SDS011;74141;51.504;7.122;2024-02-26T12:15:42;9.27;;;6.40;;
84054;SDS011;74141;51.504;7.122;2024-02-26T12:18:09;10.90;;;7.00;;
84054;SDS011;74141;51.504;7.122;2024-02-26T12:20:36;9.48;;;6.68;;
84054;SDS011;74141;51.504;7.122;2024-02-26T12:23:02;9.65;;;7.45;;
84054;SDS011;74141;51.504;7.122;2024-02-26T12:25:32;11.48;;;7.20;;
84054;SDS011;74141;51.504;7.122;2024-02-26T12:27:58;10.38;;;7.00;;
84054;SDS011;74141;51.504;7.122;2024-02-26T12:30:24;10.65;;;7.45;;
84054;SDS011;74141;51.504;7.122;2024-02-26T12:32:54;10.63;;;7.28;;
84054;SDS011;74141;51.504;7.122;2024-02-26T12:35:22;9.45;;;5.85;;
84054;SDS011;74141;51.504;7.122;2024-02-26T12:37:48;12.50;;;6.25;;
84054;SDS011;74141;51.504;7.122;2024-02-26T12:40:16;12.77;;;6.05;;
84054;SDS011;74141;51.504;7.122;2024-02-26T12:42:42;10.23;;;6.18;;
84054;SDS011;74141;51.504;7.122;2024-02-26T12:45:11;9.00;;;7.28;;
84054;SDS011;74141;51.504;7.122;2024-02-26T12:47:44;8.35;;;5.97;;
84054;SDS011;74141;51.504;7.122;2024-02-26T12:50:14;8.38;;;6.10;;
84054;SDS011;74141;51.504;7.122;2024-02-26T12:52:44;9.52;;;6.63;;
84054;SDS011;74141;51.504;7.122;2024-02-26T12:55:18;8.73;;;6.10;;
84054;SDS011;74141;51.504;7.122;2024-02-26T12:57:45;8.10;;;5.43;;
84054;SDS011;74141;51.504;7.122;2024-02-26T13:00:15;8.48;;;6.15;;
84054;SDS011;74141;51.504;7.122;2024-02-26T13:02:43;9.35;;;6.03;;
84054;SDS011;74141;51.504;7.122;2024-02-26T13:05:10;5.97;;;4.72;;
84054;SDS011;74141;51.504;7.122;2024-02-26T13:07:43;8.70;;;6.40;;
84054;SDS011;74141;51.504;7.122;2024-02-26T13:10:11;6.78;;;4.78;;
84054;SDS011;74141;51.504;7.122;2024-02-26T13:12:37;7.72;;;5.40;;
84054;SDS011;74141;51.504;7.122;2024-02-26T13:15:07;7.85;;;5.47;;
84054;SDS011;74141;51.504;7.122;2024-02-26T13:17:39;6.70;;;4.22;;
84054;SDS011;74141;51.504;7.122;2024-02-26T13:20:04;4.97;;;3.58;;
84054;SDS011;74141;51.504;7.122;2024-02-26T13:22:30;6.30;;;5.05;;
84054;SDS011;74141;51.504;7.122;2024-02-26T13:24:58;8.32;;;5.00;;
84054;SDS011;74141;51.504;7.122;2024-02-26T13:27:24;12.55;;;5.82;;
84054;SDS011;74141;51.504;7.122;2024-02-26T13:30:09;9.80;;;4.45;;
84054;SDS011;74141;51.504;7.122;2024-02-26T13:32:36;8.20;;;5.55;;
84054;SDS011;74141;51.504;7.122;2024-02-26T13:35:06;7.30;;;5.10;;
84054;SDS011;74141;51.504;7.122;2024-02-26T13:37:32;9.73;;;3.72;;
84054;SDS011;74141;51.504;7.122;2024-02-26T13:39:58;9.43;;;5.82;;
84054;SDS011;74141;51.504;7.122;2024-02-26T13:42:23;6.80;;;5.45;;
84054;SDS011;74141;51.504;7.122;2024-02-26T13:44:48;7.80;;;5.50;;
84054;SDS011;74141;51.504;7.122;2024-02-26T13:47:14;6.37;;;5.30;;
84054;SDS011;74141;51.504;7.122;2024-02-26T13:49:39;9.20;;;6.10;;
84054;SDS011;74141;51.504;7.122;2024-02-26T13:52:05;6.47;;;4.80;;
84054;SDS011;74141;51.504;7.122;2024-02-26T13:54:30;6.20;;;4.55;;
84054;SDS011;74141;51.504;7.122;2024-02-26T13:56:55;5.53;;;4.43;;
84054;SDS011;74141;51.504;7.122;2024-02-26T13:59:20;6.70;;;5.27;;
84054;SDS011;74141;51.504;7.122;2024-02-26T14:01:46;13.03;;;9.97;;
84054;SDS011;74141;51.504;7.122;2024-02-26T14:04:11;11.13;;;7.40;;
84054;SDS011;74141;51.504;7.122;2024-02-26T14:06:36;8.63;;;6.67;;
84054;SDS011;74141;51.504;7.122;2024-02-26T14:09:02;9.23;;;4.93;;
84054;SDS011;74141;51.504;7.122;2024-02-26T14:11:29;7.40;;;5.47;;
84054;SDS011;74141;51.504;7.122;2024-02-26T14:13:54;7.13;;;4.77;;
84054;SDS011;74141;51.504;7.122;2024-02-26T14:16:19;7.35;;;4.65;;
84054;SDS011;74141;51.504;7.122;2024-02-26T14:18:45;10.65;;;6.80;;
84054;SDS011;74141;51.504;7.122;2024-02-26T14:21:11;6.72;;;4.50;;
84054;SDS011;74141;51.504;7.122;2024-02-26T14:23:37;10.35;;;6.53;;
84054;SDS011;74141;51.504;7.122;2024-02-26T14:26:02;7.47;;;4.67;;
84054;SDS011;74141;51.504;7.122;2024-02-26T14:28:28;5.57;;;3.80;;
84054;SDS011;74141;51.504;7.122;2024-02-26T14:30:54;7.85;;;4.60;;
84054;SDS011;74141;51.504;7.122;2024-02-26T14:33:19;8.13;;;5.78;;
84054;SDS011;74141;51.504;7.122;2024-02-26T14:35:45;7.22;;;3.78;;
84054;SDS011;74141;51.504;7.122;2024-02-26T14:38:10;11.18;;;6.38;;
84054;SDS011;74141;51.504;7.122;2024-02-26T14:40:36;6.72;;;4.70;;
84054;SDS011;74141;51.504;7.122;2024-02-26T14:43:02;7.68;;;4.22;;
84054;SDS011;74141;51.504;7.122;2024-02-26T14:45:29;5.88;;;4.22;;
84054;SDS011;74141;51.504;7.122;2024-02-26T14:47:54;5.60;;;4.50;;